createdAt,value
2023-05-24T00:00:05.632Z,20.67
2023-05-24T00:00:17.591Z,20.67
2023-05-24T00:00:28.590Z,20.67
2023-05-24T00:00:39.649Z,20.66
2023-05-24T00:00:51.583Z,20.67
2023-05-24T00:01:02.604Z,20.66
2023-05-24T00:01:13.577Z,20.66
2023-05-24T00:01:24.572Z,20.66
2023-05-24T00:01:35.576Z,20.65
2023-05-24T00:01:46.590Z,20.66
2023-05-24T00:01:57.599Z,20.65
2023-05-24T00:02:08.588Z,20.65
2023-05-24T00:02:19.596Z,20.66
2023-05-24T00:02:30.636Z,20.66
2023-05-24T00:02:41.632Z,20.67
2023-05-24T00:02:52.617Z,20.65
2023-05-24T00:03:03.588Z,20.65
2023-05-24T00:03:15.704Z,20.66
2023-05-24T00:03:26.642Z,20.66
2023-05-24T00:03:37.715Z,20.66
2023-05-24T00:03:49.723Z,20.64
2023-05-24T00:04:00.916Z,20.65
2023-05-24T00:04:11.742Z,20.66
2023-05-24T00:04:23.708Z,20.66
2023-05-24T00:04:35.631Z,20.66
2023-05-24T00:04:46.563Z,20.65
2023-05-24T00:04:57.590Z,20.66
2023-05-24T00:05:08.638Z,20.66
2023-05-24T00:05:19.642Z,20.64
2023-05-24T00:05:31.637Z,20.65
2023-05-24T00:05:43.587Z,20.66
2023-05-24T00:05:55.562Z,20.64
2023-05-24T00:06:06.550Z,20.64
2023-05-24T00:06:17.538Z,20.65
2023-05-24T00:06:28.629Z,20.64
2023-05-24T00:06:40.583Z,20.64
2023-05-24T00:06:51.580Z,20.64
2023-05-24T00:07:02.583Z,20.64
2023-05-24T00:07:13.580Z,20.64
2023-05-24T00:07:24.594Z,20.64
2023-05-24T00:07:36.573Z,20.64
2023-05-24T00:07:47.578Z,20.63
2023-05-24T00:07:59.565Z,20.64
2023-05-24T00:08:10.584Z,20.65
2023-05-24T00:08:21.585Z,20.63
2023-05-24T00:08:32.593Z,20.64
2023-05-24T00:08:43.586Z,20.64
2023-05-24T00:08:54.575Z,20.65
2023-05-24T00:09:05.621Z,20.64
2023-05-24T00:09:17.587Z,20.62
2023-05-24T00:09:28.582Z,20.63
2023-05-24T00:09:39.644Z,20.63
2023-05-24T00:09:50.570Z,20.64
2023-05-24T00:10:01.586Z,20.64
2023-05-24T00:10:12.598Z,20.64
2023-05-24T00:10:23.605Z,20.64
2023-05-24T00:10:34.604Z,20.64
2023-05-24T00:10:45.592Z,20.64
2023-05-24T00:10:56.579Z,20.63
2023-05-24T00:11:07.589Z,20.65
2023-05-24T00:11:18.595Z,20.64
2023-05-24T00:11:29.594Z,20.63
2023-05-24T00:11:40.600Z,20.63
2023-05-24T00:11:51.596Z,20.63
2023-05-24T00:12:02.584Z,20.64
2023-05-24T00:12:13.580Z,20.64
2023-05-24T00:12:24.577Z,20.64
2023-05-24T00:12:35.574Z,20.63
2023-05-24T00:12:46.569Z,20.64
2023-05-24T00:12:57.557Z,20.63
2023-05-24T00:13:08.552Z,20.63
2023-05-24T00:13:19.552Z,20.63
2023-05-24T00:13:30.558Z,20.62
2023-05-24T00:13:41.547Z,20.64
2023-05-24T00:13:52.648Z,20.63
2023-05-24T00:14:04.626Z,20.63
2023-05-24T00:14:16.588Z,20.64
2023-05-24T00:14:27.604Z,20.63
2023-05-24T00:14:38.590Z,20.64
2023-05-24T00:14:49.582Z,20.64
2023-05-24T00:15:00.600Z,20.65
2023-05-24T00:15:12.572Z,20.64
2023-05-24T00:15:23.561Z,20.63
2023-05-24T00:15:34.559Z,20.64
2023-05-24T00:15:45.556Z,20.63
2023-05-24T00:15:56.649Z,20.64
2023-05-24T00:16:08.650Z,20.63
2023-05-24T00:16:20.632Z,20.64
2023-05-24T00:16:32.603Z,20.63
2023-05-24T00:16:44.626Z,20.63
2023-05-24T00:16:56.675Z,20.62
2023-05-24T00:17:08.589Z,20.63
2023-05-24T00:17:19.577Z,20.64
2023-05-24T00:17:30.568Z,20.65
2023-05-24T00:17:41.803Z,20.64
2023-05-24T00:17:53.638Z,20.64
2023-05-24T00:18:04.625Z,20.64
2023-05-24T00:18:15.554Z,20.64
2023-05-24T00:18:26.568Z,20.63
2023-05-24T00:18:37.564Z,20.63
2023-05-24T00:18:48.564Z,20.63
2023-05-24T00:18:59.594Z,20.64
2023-05-24T00:19:10.581Z,20.63
2023-05-24T00:19:21.579Z,20.62
2023-05-24T00:19:32.581Z,20.63
2023-05-24T00:19:43.583Z,20.63
2023-05-24T00:19:54.622Z,20.63
2023-05-24T00:20:07.442Z,20.62
2023-05-24T00:20:17.627Z,20.62
2023-05-24T00:20:29.617Z,20.63
2023-05-24T00:20:40.889Z,20.63
2023-05-24T00:20:52.662Z,20.63
2023-05-24T00:21:03.604Z,20.63
2023-05-24T00:21:14.587Z,20.63
2023-05-24T00:21:25.570Z,20.62
2023-05-24T00:21:36.585Z,20.62
2023-05-24T00:21:47.560Z,20.63
2023-05-24T00:21:58.558Z,20.62
2023-05-24T00:22:09.582Z,20.62
2023-05-24T00:22:20.603Z,20.62
2023-05-24T00:22:31.592Z,20.62
2023-05-24T00:22:42.592Z,20.62
2023-05-24T00:22:53.605Z,20.61
2023-05-24T00:23:05.600Z,20.63
2023-05-24T00:23:16.601Z,20.62
2023-05-24T00:23:27.596Z,20.60
2023-05-24T00:23:38.601Z,20.62
2023-05-24T00:23:50.609Z,20.62
2023-05-24T00:24:01.595Z,20.63
2023-05-24T00:24:12.624Z,20.62
2023-05-24T00:24:23.566Z,20.62
2023-05-24T00:24:34.597Z,20.62
2023-05-24T00:24:45.596Z,20.62
2023-05-24T00:24:56.588Z,20.62
2023-05-24T00:25:07.638Z,20.61
2023-05-24T00:25:18.557Z,20.62
2023-05-24T00:25:29.650Z,20.63
2023-05-24T00:25:41.614Z,20.62
2023-05-24T00:25:52.596Z,20.63
2023-05-24T00:26:03.590Z,20.62
2023-05-24T00:26:14.589Z,20.62
2023-05-24T00:26:25.573Z,20.61
2023-05-24T00:26:36.564Z,20.61
2023-05-24T00:26:47.643Z,20.61
2023-05-24T00:26:59.618Z,20.62
2023-05-24T00:27:10.606Z,20.61
2023-05-24T00:27:21.606Z,20.60
2023-05-24T00:27:32.593Z,20.61
2023-05-24T00:27:43.586Z,20.61
2023-05-24T00:27:54.579Z,20.60
2023-05-24T00:28:05.567Z,20.60
2023-05-24T00:28:16.562Z,20.60
2023-05-24T00:28:27.547Z,20.60
2023-05-24T00:28:38.624Z,20.60
2023-05-24T00:28:49.609Z,20.59
2023-05-24T00:29:00.617Z,20.60
2023-05-24T00:29:12.595Z,20.60
2023-05-24T00:29:23.588Z,20.60
2023-05-24T00:29:34.575Z,20.60
2023-05-24T00:29:45.572Z,20.60
2023-05-24T00:29:56.564Z,20.60
2023-05-24T00:30:07.610Z,20.60
2023-05-24T00:30:18.647Z,20.61
2023-05-24T00:30:30.596Z,20.61
2023-05-24T00:30:41.786Z,20.59
2023-05-24T00:30:53.600Z,20.61
2023-05-24T00:31:04.587Z,20.60
2023-05-24T00:31:15.604Z,20.60
2023-05-24T00:31:27.588Z,20.60
2023-05-24T00:31:38.639Z,20.60
2023-05-24T00:31:50.639Z,20.61
2023-05-24T00:32:02.696Z,20.60
2023-05-24T00:32:14.610Z,20.61
2023-05-24T00:32:25.618Z,20.59
2023-05-24T00:32:37.687Z,20.60
2023-05-24T00:32:49.614Z,20.60
2023-05-24T00:33:01.617Z,20.59
2023-05-24T00:33:13.598Z,20.59
2023-05-24T00:33:24.589Z,20.59
2023-05-24T00:33:35.584Z,20.59
2023-05-24T00:33:46.582Z,20.59
2023-05-24T00:33:57.592Z,20.60
2023-05-24T00:34:08.593Z,20.59
2023-05-24T00:34:19.586Z,20.60
2023-05-24T00:34:30.588Z,20.60
2023-05-24T00:34:41.606Z,20.60
2023-05-24T00:34:52.603Z,20.60
2023-05-24T00:35:03.623Z,20.59
2023-05-24T00:35:15.605Z,20.60
2023-05-24T00:35:26.598Z,20.62
2023-05-24T00:35:37.580Z,20.59
2023-05-24T00:35:48.564Z,20.60
2023-05-24T00:35:59.578Z,20.61
2023-05-24T00:36:10.565Z,20.61
2023-05-24T00:36:21.568Z,20.60
2023-05-24T00:36:32.558Z,20.60
2023-05-24T00:36:43.593Z,20.59
2023-05-24T00:36:54.600Z,20.61
2023-05-24T00:37:05.589Z,20.59
2023-05-24T00:37:16.587Z,20.59
2023-05-24T00:37:27.601Z,20.59
2023-05-24T00:37:38.601Z,20.59
2023-05-24T00:37:49.604Z,20.59
2023-05-24T00:38:00.590Z,20.59
2023-05-24T00:38:12.593Z,20.59
2023-05-24T00:38:23.607Z,20.61
2023-05-24T00:38:34.611Z,20.61
2023-05-24T00:38:45.595Z,20.60
2023-05-24T00:38:56.585Z,20.59
2023-05-24T00:39:07.594Z,20.59
2023-05-24T00:39:18.594Z,20.58
2023-05-24T00:39:29.605Z,20.57
2023-05-24T00:39:40.590Z,20.59
2023-05-24T00:39:52.592Z,20.58
2023-05-24T00:40:03.594Z,20.59
2023-05-24T00:40:14.587Z,20.58
2023-05-24T00:40:25.585Z,20.58
2023-05-24T00:40:36.598Z,20.58
2023-05-24T00:40:48.578Z,20.57
2023-05-24T00:40:59.577Z,20.58
2023-05-24T00:41:10.570Z,20.58
2023-05-24T00:41:21.567Z,20.58
2023-05-24T00:41:32.561Z,20.58
2023-05-24T00:41:43.652Z,20.58
2023-05-24T00:41:55.619Z,20.58
2023-05-24T00:42:06.608Z,20.57
2023-05-24T00:42:17.605Z,20.58
2023-05-24T00:42:28.600Z,20.58
2023-05-24T00:42:39.634Z,20.58
2023-05-24T00:42:51.615Z,20.58
2023-05-24T00:43:02.616Z,20.57
2023-05-24T00:43:13.592Z,20.58
2023-05-24T00:43:24.588Z,20.57
2023-05-24T00:43:35.589Z,20.57
2023-05-24T00:43:46.588Z,20.58
2023-05-24T00:43:57.583Z,20.57
2023-05-24T00:44:08.589Z,20.58
2023-05-24T00:44:19.604Z,20.58
2023-05-24T00:44:30.615Z,20.57
2023-05-24T00:44:42.588Z,20.55
2023-05-24T00:44:53.587Z,20.56
2023-05-24T00:45:04.594Z,20.57
2023-05-24T00:45:15.608Z,20.57
2023-05-24T00:45:26.586Z,20.57
2023-05-24T00:45:37.588Z,20.57
2023-05-24T00:45:48.651Z,20.58
2023-05-24T00:45:59.623Z,20.57
2023-05-24T00:46:10.705Z,20.57
2023-05-24T00:46:22.765Z,20.57
2023-05-24T00:46:33.707Z,20.56
2023-05-24T00:46:45.580Z,20.58
2023-05-24T00:46:56.596Z,20.58
2023-05-24T00:47:07.584Z,20.58
2023-05-24T00:47:18.590Z,20.58
2023-05-24T00:47:29.696Z,20.58
2023-05-24T00:47:40.649Z,20.58
2023-05-24T00:47:51.624Z,20.59
2023-05-24T00:48:03.633Z,20.57
2023-05-24T00:48:14.557Z,20.57
2023-05-24T00:48:25.576Z,20.57
2023-05-24T00:48:36.563Z,20.56
2023-05-24T00:48:47.598Z,20.56
2023-05-24T00:48:58.611Z,20.56
2023-05-24T00:49:09.606Z,20.57
2023-05-24T00:49:20.600Z,20.57
2023-05-24T00:49:32.590Z,20.57
2023-05-24T00:49:43.596Z,20.56
2023-05-24T00:49:54.581Z,20.57
2023-05-24T00:50:05.575Z,20.57
2023-05-24T00:50:16.610Z,20.56
2023-05-24T00:50:28.596Z,20.56
2023-05-24T00:50:39.673Z,20.56
2023-05-24T00:50:50.626Z,20.56
2023-05-24T00:51:02.589Z,20.56
2023-05-24T00:51:13.575Z,20.56
2023-05-24T00:51:24.568Z,20.57
2023-05-24T00:51:35.560Z,20.56
2023-05-24T00:51:46.557Z,20.57
2023-05-24T00:51:57.554Z,20.57
2023-05-24T00:52:08.544Z,20.56
2023-05-24T00:52:19.621Z,20.58
2023-05-24T00:52:31.573Z,20.57
2023-05-24T00:52:42.565Z,20.56
2023-05-24T00:52:53.559Z,20.58
2023-05-24T00:53:04.561Z,20.57
2023-05-24T00:53:15.561Z,20.56
2023-05-24T00:53:26.548Z,20.56
2023-05-24T00:53:37.554Z,20.55
2023-05-24T00:53:48.535Z,20.56
2023-05-24T00:53:59.623Z,20.57
2023-05-24T00:54:11.573Z,20.57
2023-05-24T00:54:22.561Z,20.56
2023-05-24T00:54:33.524Z,20.58
2023-05-24T00:54:44.614Z,20.57
2023-05-24T00:54:56.570Z,20.57
2023-05-24T00:55:07.564Z,20.57
2023-05-24T00:55:18.535Z,20.57
2023-05-24T00:55:29.531Z,20.56
2023-05-24T00:55:40.526Z,20.56
2023-05-24T00:55:51.604Z,20.56
2023-05-24T00:56:03.608Z,20.55
2023-05-24T00:56:15.578Z,20.55
2023-05-24T00:56:26.590Z,20.55
2023-05-24T00:56:37.575Z,20.55
2023-05-24T00:56:48.557Z,20.56
2023-05-24T00:56:59.564Z,20.56
2023-05-24T00:57:10.518Z,20.55
2023-05-24T00:57:21.617Z,20.57
2023-05-24T00:57:33.598Z,20.56
2023-05-24T00:57:45.559Z,20.56
2023-05-24T00:57:56.562Z,20.55
2023-05-24T00:58:07.548Z,20.56
2023-05-24T00:58:18.545Z,20.56
2023-05-24T00:58:29.619Z,20.57
2023-05-24T00:58:41.575Z,20.56
2023-05-24T00:58:52.551Z,20.56
2023-05-24T00:59:03.546Z,20.56
2023-05-24T00:59:14.629Z,20.55
2023-05-24T00:59:26.572Z,20.55
2023-05-24T00:59:37.564Z,20.55
2023-05-24T00:59:48.535Z,20.55
2023-05-24T00:59:59.528Z,20.55
2023-05-24T01:00:10.542Z,20.55
2023-05-24T01:00:21.537Z,20.54
2023-05-24T01:00:32.548Z,20.55
2023-05-24T01:00:43.742Z,20.55
2023-05-24T01:00:55.569Z,20.56
2023-05-24T01:01:06.584Z,20.55
2023-05-24T01:01:18.629Z,20.56
2023-05-24T01:01:29.556Z,20.54
2023-05-24T01:01:40.555Z,20.55
2023-05-24T01:01:51.599Z,20.55
2023-05-24T01:02:02.641Z,20.54
2023-05-24T01:02:14.689Z,20.54
2023-05-24T01:02:26.620Z,20.54
2023-05-24T01:02:37.701Z,20.55
2023-05-24T01:02:49.682Z,20.54
2023-05-24T01:03:00.754Z,20.55
2023-05-24T01:03:12.716Z,20.54
2023-05-24T01:03:23.623Z,20.54
2023-05-24T01:03:34.613Z,20.54
2023-05-24T01:03:45.646Z,20.53
2023-05-24T01:03:56.571Z,20.55
2023-05-24T01:04:07.551Z,20.55
2023-05-24T01:04:18.544Z,20.54
2023-05-24T01:04:29.537Z,20.54
2023-05-24T01:04:40.613Z,20.55
2023-05-24T01:04:52.574Z,20.54
2023-05-24T01:05:03.572Z,20.54
2023-05-24T01:05:14.557Z,20.54
2023-05-24T01:05:25.531Z,20.53
2023-05-24T01:05:36.596Z,20.53
2023-05-24T01:05:47.599Z,20.55
2023-05-24T01:05:58.594Z,20.54
2023-05-24T01:06:10.561Z,20.53
2023-05-24T01:06:21.583Z,20.54
2023-05-24T01:06:32.560Z,20.55
2023-05-24T01:06:43.547Z,20.54
2023-05-24T01:06:54.532Z,20.53
2023-05-24T01:07:05.612Z,20.53
2023-05-24T01:07:16.595Z,20.53
2023-05-24T01:07:27.586Z,20.53
2023-05-24T01:07:38.579Z,20.55
2023-05-24T01:07:49.562Z,20.54
2023-05-24T01:08:00.554Z,20.54
2023-05-24T01:08:11.537Z,20.53
2023-05-24T01:08:22.620Z,20.54
2023-05-24T01:08:36.178Z,20.54
2023-05-24T01:08:46.595Z,20.54
2023-05-24T01:08:57.568Z,20.54
2023-05-24T01:09:08.549Z,20.54
2023-05-24T01:09:19.531Z,20.54
2023-05-24T01:09:30.602Z,20.55
2023-05-24T01:09:41.586Z,20.53
2023-05-24T01:09:52.561Z,20.54
2023-05-24T01:10:03.560Z,20.54
2023-05-24T01:10:14.537Z,20.54
2023-05-24T01:10:25.541Z,20.55
2023-05-24T01:10:36.621Z,20.54
2023-05-24T01:10:48.575Z,20.53
2023-05-24T01:10:59.575Z,20.52
2023-05-24T01:11:10.542Z,20.54
2023-05-24T01:11:21.609Z,20.53
2023-05-24T01:11:33.572Z,20.51
2023-05-24T01:11:44.559Z,20.54
2023-05-24T01:11:55.537Z,20.53
2023-05-24T01:12:06.628Z,20.52
2023-05-24T01:12:18.573Z,20.52
2023-05-24T01:12:29.562Z,20.54
2023-05-24T01:12:40.546Z,20.54
2023-05-24T01:12:51.544Z,20.52
2023-05-24T01:13:02.526Z,20.53
2023-05-24T01:13:13.614Z,20.53
2023-05-24T01:13:25.555Z,20.52
2023-05-24T01:13:36.559Z,20.53
2023-05-24T01:13:47.559Z,20.52
2023-05-24T01:13:58.556Z,20.52
2023-05-24T01:14:09.585Z,20.53
2023-05-24T01:14:20.554Z,20.52
2023-05-24T01:14:31.533Z,20.52
2023-05-24T01:14:42.621Z,20.53
2023-05-24T01:14:54.556Z,20.52
2023-05-24T01:15:05.536Z,20.53
2023-05-24T01:15:16.570Z,20.52
2023-05-24T01:15:27.561Z,20.52
2023-05-24T01:15:38.557Z,20.52
2023-05-24T01:15:49.572Z,20.53
2023-05-24T01:16:00.597Z,20.52
2023-05-24T01:16:11.650Z,20.52
2023-05-24T01:16:22.649Z,20.53
2023-05-24T01:16:33.614Z,20.52
2023-05-24T01:16:45.556Z,20.52
2023-05-24T01:16:56.566Z,20.52
2023-05-24T01:17:07.576Z,20.54
2023-05-24T01:17:18.546Z,20.52
2023-05-24T01:17:29.650Z,20.52
2023-05-24T01:17:41.641Z,20.53
2023-05-24T01:17:53.633Z,20.52
2023-05-24T01:18:05.693Z,20.51
2023-05-24T01:18:16.594Z,20.51
2023-05-24T01:18:27.581Z,20.52
2023-05-24T01:18:38.560Z,20.51
2023-05-24T01:18:49.537Z,20.51
2023-05-24T01:19:00.621Z,20.51
2023-05-24T01:19:12.592Z,20.51
2023-05-24T01:19:23.573Z,20.51
2023-05-24T01:19:34.561Z,20.52
2023-05-24T01:19:45.537Z,20.51
2023-05-24T01:19:56.639Z,20.51
2023-05-24T01:20:08.604Z,20.50
2023-05-24T01:20:19.623Z,20.50
2023-05-24T01:20:30.666Z,20.51
2023-05-24T01:20:41.885Z,20.52
2023-05-24T01:20:52.561Z,20.52
2023-05-24T01:21:03.533Z,20.53
2023-05-24T01:21:14.613Z,20.51
2023-05-24T01:21:25.598Z,20.52
2023-05-24T01:21:36.581Z,20.53
2023-05-24T01:21:47.558Z,20.51
2023-05-24T01:21:58.549Z,20.52
2023-05-24T01:22:09.569Z,20.52
2023-05-24T01:22:20.541Z,20.51
2023-05-24T01:22:31.609Z,20.53
2023-05-24T01:22:42.593Z,20.52
2023-05-24T01:22:53.575Z,20.51
2023-05-24T01:23:04.548Z,20.51
2023-05-24T01:23:15.641Z,20.50
2023-05-24T01:23:27.583Z,20.51
2023-05-24T01:23:38.556Z,20.51
2023-05-24T01:23:49.553Z,20.52
2023-05-24T01:24:00.628Z,20.51
2023-05-24T01:24:12.576Z,20.51
2023-05-24T01:24:23.566Z,20.50
2023-05-24T01:24:34.542Z,20.49
2023-05-24T01:24:45.627Z,20.51
2023-05-24T01:24:57.568Z,20.51
2023-05-24T01:25:08.542Z,20.50
2023-05-24T01:25:19.620Z,20.51
2023-05-24T01:25:31.560Z,20.50
2023-05-24T01:25:42.523Z,20.50
2023-05-24T01:25:53.615Z,20.51
2023-05-24T01:26:04.588Z,20.50
2023-05-24T01:26:15.588Z,20.51
2023-05-24T01:26:26.585Z,20.51
2023-05-24T01:26:37.602Z,20.50
2023-05-24T01:26:48.576Z,20.52
2023-05-24T01:26:59.565Z,20.51
2023-05-24T01:27:10.553Z,20.52
2023-05-24T01:27:21.628Z,20.51
2023-05-24T01:27:32.600Z,20.49
2023-05-24T01:27:44.612Z,20.50
2023-05-24T01:27:55.585Z,20.50
2023-05-24T01:28:06.584Z,20.50
2023-05-24T01:28:18.596Z,20.50
2023-05-24T01:28:29.534Z,20.51
2023-05-24T01:28:40.618Z,20.50
2023-05-24T01:28:51.591Z,20.50
2023-05-24T01:29:02.575Z,20.50
2023-05-24T01:29:13.557Z,20.50
2023-05-24T01:29:24.641Z,20.50
2023-05-24T01:29:36.592Z,20.50
2023-05-24T01:29:47.576Z,20.51
2023-05-24T01:29:58.549Z,20.49
2023-05-24T01:30:09.611Z,20.50
2023-05-24T01:30:21.578Z,20.49
2023-05-24T01:30:32.591Z,20.50
2023-05-24T01:30:43.844Z,20.50
2023-05-24T01:30:55.594Z,20.50
2023-05-24T01:31:06.582Z,20.50
2023-05-24T01:31:17.597Z,20.50
2023-05-24T01:31:29.576Z,20.50
2023-05-24T01:31:40.602Z,20.50
2023-05-24T01:31:51.648Z,20.51
2023-05-24T01:32:03.598Z,20.49
2023-05-24T01:32:14.593Z,20.49
2023-05-24T01:32:25.640Z,20.50
2023-05-24T01:32:36.602Z,20.49
2023-05-24T01:32:47.688Z,20.50
2023-05-24T01:32:59.635Z,20.50
2023-05-24T01:33:11.596Z,20.50
2023-05-24T01:33:23.566Z,20.50
2023-05-24T01:33:34.546Z,20.50
2023-05-24T01:33:45.630Z,20.50
2023-05-24T01:33:57.575Z,20.50
2023-05-24T01:34:08.551Z,20.49
2023-05-24T01:34:19.518Z,20.49
2023-05-24T01:34:30.609Z,20.48
2023-05-24T01:34:41.577Z,20.49
2023-05-24T01:34:52.594Z,20.49
2023-05-24T01:35:03.589Z,20.49
2023-05-24T01:35:14.581Z,20.48
2023-05-24T01:35:25.553Z,20.48
2023-05-24T01:35:36.532Z,20.48
2023-05-24T01:35:47.611Z,20.48
2023-05-24T01:35:59.567Z,20.47
2023-05-24T01:36:10.530Z,20.48
2023-05-24T01:36:21.562Z,20.48
2023-05-24T01:36:32.554Z,20.48
2023-05-24T01:36:43.617Z,20.48
2023-05-24T01:36:55.558Z,20.48
2023-05-24T01:37:06.557Z,20.48
2023-05-24T01:37:17.541Z,20.48
2023-05-24T01:37:28.630Z,20.49
2023-05-24T01:37:40.563Z,20.48
2023-05-24T01:37:51.561Z,20.49
2023-05-24T01:38:02.563Z,20.50
2023-05-24T01:38:13.529Z,20.49
2023-05-24T01:38:24.613Z,20.50
2023-05-24T01:38:36.552Z,20.49
2023-05-24T01:38:47.527Z,20.49
2023-05-24T01:38:58.615Z,20.50
2023-05-24T01:39:10.554Z,20.48
2023-05-24T01:39:21.534Z,20.48
2023-05-24T01:39:32.626Z,20.48
2023-05-24T01:39:44.586Z,20.49
2023-05-24T01:39:55.574Z,20.47
2023-05-24T01:40:06.561Z,20.48
2023-05-24T01:40:17.561Z,20.48
2023-05-24T01:40:28.539Z,20.48
2023-05-24T01:40:39.620Z,20.47
2023-05-24T01:40:51.572Z,20.49
2023-05-24T01:41:02.551Z,20.47
2023-05-24T01:41:13.624Z,20.48
2023-05-24T01:41:25.583Z,20.50
2023-05-24T01:41:36.584Z,20.49
2023-05-24T01:41:48.567Z,20.48
2023-05-24T01:41:59.551Z,20.48
2023-05-24T01:42:10.618Z,20.48
2023-05-24T01:42:22.564Z,20.49
2023-05-24T01:42:33.536Z,20.47
2023-05-24T01:42:44.621Z,20.47
2023-05-24T01:42:56.559Z,20.47
2023-05-24T01:43:07.554Z,20.47
2023-05-24T01:43:18.552Z,20.49
2023-05-24T01:43:29.556Z,20.49
2023-05-24T01:43:40.543Z,20.48
2023-05-24T01:43:51.529Z,20.47
2023-05-24T01:44:02.624Z,20.48
2023-05-24T01:44:14.583Z,20.47
2023-05-24T01:44:25.558Z,20.48
2023-05-24T01:44:36.539Z,20.47
2023-05-24T01:44:47.602Z,20.48
2023-05-24T01:44:59.564Z,20.48
2023-05-24T01:45:10.549Z,20.49
2023-05-24T01:45:21.618Z,20.48
2023-05-24T01:45:33.565Z,20.48
2023-05-24T01:45:44.542Z,20.49
2023-05-24T01:45:55.636Z,20.48
2023-05-24T01:46:07.599Z,20.48
2023-05-24T01:46:19.576Z,20.48
2023-05-24T01:46:30.606Z,20.47
2023-05-24T01:46:42.631Z,20.49
2023-05-24T01:46:54.637Z,20.47
2023-05-24T01:47:06.679Z,20.48
2023-05-24T01:47:18.590Z,20.48
2023-05-24T01:47:29.617Z,20.49
2023-05-24T01:47:41.609Z,20.48
2023-05-24T01:47:53.725Z,20.47
2023-05-24T01:48:05.640Z,20.47
2023-05-24T01:48:16.575Z,20.48
2023-05-24T01:48:27.531Z,20.48
2023-05-24T01:48:38.526Z,20.47
2023-05-24T01:48:49.615Z,20.48
2023-05-24T01:49:01.562Z,20.46
2023-05-24T01:49:12.535Z,20.47
2023-05-24T01:49:23.620Z,20.47
2023-05-24T01:49:35.578Z,20.45
2023-05-24T01:49:46.573Z,20.46
2023-05-24T01:49:57.543Z,20.46
2023-05-24T01:50:08.605Z,20.47
2023-05-24T01:50:20.556Z,20.45
2023-05-24T01:50:31.516Z,20.47
2023-05-24T01:50:42.739Z,20.46
2023-05-24T01:50:54.553Z,20.45
2023-05-24T01:51:05.545Z,20.46
2023-05-24T01:51:16.532Z,20.48
2023-05-24T01:51:27.602Z,20.47
2023-05-24T01:51:38.579Z,20.47
2023-05-24T01:51:49.589Z,20.45
2023-05-24T01:52:01.639Z,20.46
2023-05-24T01:52:12.648Z,20.46
2023-05-24T01:52:23.565Z,20.46
2023-05-24T01:52:35.570Z,20.47
2023-05-24T01:52:46.559Z,20.47
2023-05-24T01:52:57.549Z,20.46
2023-05-24T01:53:08.525Z,20.45
2023-05-24T01:53:19.622Z,20.46
2023-05-24T01:53:31.586Z,20.47
2023-05-24T01:53:42.558Z,20.46
2023-05-24T01:53:53.540Z,20.46
2023-05-24T01:54:04.532Z,20.46
2023-05-24T01:54:15.538Z,20.46
2023-05-24T01:54:26.621Z,20.45
2023-05-24T01:54:38.574Z,20.46
2023-05-24T01:54:49.537Z,20.44
2023-05-24T01:55:00.615Z,20.45
2023-05-24T01:55:12.576Z,20.44
2023-05-24T01:55:23.565Z,20.46
2023-05-24T01:55:34.544Z,20.44
2023-05-24T01:55:45.522Z,20.45
2023-05-24T01:55:56.626Z,20.45
2023-05-24T01:56:08.632Z,20.44
2023-05-24T01:56:20.641Z,20.43
2023-05-24T01:56:32.617Z,20.46
2023-05-24T01:56:44.568Z,20.45
2023-05-24T01:56:55.517Z,20.46
2023-05-24T01:57:06.609Z,20.46
2023-05-24T01:57:18.562Z,20.45
2023-05-24T01:57:29.538Z,20.44
2023-05-24T01:57:40.610Z,20.45
2023-05-24T01:57:51.595Z,20.46
2023-05-24T01:58:02.581Z,20.44
2023-05-24T01:58:13.587Z,20.45
2023-05-24T01:58:24.563Z,20.44
2023-05-24T01:58:35.538Z,20.45
2023-05-24T01:58:46.620Z,20.46
2023-05-24T01:58:58.582Z,20.45
2023-05-24T01:59:09.577Z,20.45
2023-05-24T01:59:20.555Z,20.46
2023-05-24T01:59:31.575Z,20.45
2023-05-24T01:59:43.558Z,20.44
2023-05-24T01:59:54.542Z,20.45
2023-05-24T02:00:05.540Z,20.45
2023-05-24T02:00:16.627Z,20.45
2023-05-24T02:00:28.599Z,20.43
2023-05-24T02:00:40.707Z,20.44
2023-05-24T02:00:51.633Z,20.45
2023-05-24T02:01:02.623Z,20.45
2023-05-24T02:01:13.645Z,20.44
2023-05-24T02:01:24.650Z,20.44
2023-05-24T02:01:35.579Z,20.45
2023-05-24T02:01:46.566Z,20.45
2023-05-24T02:01:57.613Z,20.46
2023-05-24T02:02:09.637Z,20.46
2023-05-24T02:02:21.630Z,20.44
2023-05-24T02:02:32.660Z,20.45
2023-05-24T02:02:44.672Z,20.45
2023-05-24T02:02:55.604Z,20.45
2023-05-24T02:03:07.773Z,20.44
2023-05-24T02:03:18.629Z,20.44
2023-05-24T02:03:30.618Z,20.46
2023-05-24T02:03:42.562Z,20.45
2023-05-24T02:03:53.575Z,20.46
2023-05-24T02:04:04.586Z,20.45
2023-05-24T02:04:16.553Z,20.45
2023-05-24T02:04:27.521Z,20.45
2023-05-24T02:04:38.630Z,20.44
2023-05-24T02:04:50.562Z,20.44
2023-05-24T02:05:01.549Z,20.45
2023-05-24T02:05:12.532Z,20.45
2023-05-24T02:05:23.617Z,20.45
2023-05-24T02:05:35.583Z,20.44
2023-05-24T02:05:47.600Z,20.44
2023-05-24T02:05:58.582Z,20.44
2023-05-24T02:06:09.568Z,20.45
2023-05-24T02:06:20.545Z,20.45
2023-05-24T02:06:31.526Z,20.44
2023-05-24T02:06:42.604Z,20.44
2023-05-24T02:06:53.583Z,20.43
2023-05-24T02:07:04.557Z,20.44
2023-05-24T02:07:15.556Z,20.43
2023-05-24T02:07:26.618Z,20.44
2023-05-24T02:07:38.560Z,20.44
2023-05-24T02:07:49.545Z,20.43
2023-05-24T02:08:00.615Z,20.43
2023-05-24T02:08:12.555Z,20.44
2023-05-24T02:08:23.530Z,20.42
2023-05-24T02:08:34.621Z,20.42
2023-05-24T02:08:46.552Z,20.42
2023-05-24T02:08:57.573Z,20.44
2023-05-24T02:09:08.545Z,20.43
2023-05-24T02:09:19.621Z,20.43
2023-05-24T02:09:31.550Z,20.43
2023-05-24T02:09:42.534Z,20.42
2023-05-24T02:09:53.609Z,20.42
2023-05-24T02:10:04.608Z,20.42
2023-05-24T02:10:16.566Z,20.44
2023-05-24T02:10:27.564Z,20.43
2023-05-24T02:10:38.580Z,20.43
2023-05-24T02:10:49.555Z,20.42
2023-05-24T02:11:00.529Z,20.42
2023-05-24T02:11:11.521Z,20.42
2023-05-24T02:11:22.616Z,20.44
2023-05-24T02:11:34.547Z,20.42
2023-05-24T02:11:45.531Z,20.42
2023-05-24T02:11:56.612Z,20.43
2023-05-24T02:12:08.553Z,20.43
2023-05-24T02:12:19.532Z,20.43
2023-05-24T02:12:30.622Z,20.43
2023-05-24T02:12:42.561Z,20.42
2023-05-24T02:12:53.555Z,20.43
2023-05-24T02:13:04.547Z,20.42
2023-05-24T02:13:15.535Z,20.43
2023-05-24T02:13:26.620Z,20.43
2023-05-24T02:13:38.563Z,20.43
2023-05-24T02:13:49.557Z,20.44
2023-05-24T02:14:00.557Z,20.44
2023-05-24T02:14:11.624Z,20.44
2023-05-24T02:14:23.589Z,20.43
2023-05-24T02:14:34.560Z,20.43
2023-05-24T02:14:45.574Z,20.43
2023-05-24T02:14:56.541Z,20.43
2023-05-24T02:15:07.541Z,20.43
2023-05-24T02:15:18.603Z,20.43
2023-05-24T02:15:29.597Z,20.42
2023-05-24T02:15:40.578Z,20.41
2023-05-24T02:15:51.564Z,20.41
2023-05-24T02:16:02.556Z,20.42
2023-05-24T02:16:13.583Z,20.43
2023-05-24T02:16:24.628Z,20.42
2023-05-24T02:16:36.595Z,20.42
2023-05-24T02:16:47.617Z,20.41
2023-05-24T02:16:59.586Z,20.43
2023-05-24T02:17:11.545Z,20.41
2023-05-24T02:17:22.561Z,20.41
2023-05-24T02:17:33.582Z,20.42
2023-05-24T02:17:44.586Z,20.41
2023-05-24T02:17:55.613Z,20.40
2023-05-24T02:18:07.619Z,20.41
2023-05-24T02:18:19.582Z,20.41
2023-05-24T02:18:30.557Z,20.41
2023-05-24T02:18:41.542Z,20.42
2023-05-24T02:18:52.626Z,20.40
2023-05-24T02:19:04.558Z,20.39
2023-05-24T02:19:15.533Z,20.40
2023-05-24T02:19:26.538Z,20.41
2023-05-24T02:19:37.534Z,20.41
2023-05-24T02:19:48.653Z,20.41
2023-05-24T02:20:00.738Z,20.39
2023-05-24T02:20:12.625Z,20.40
2023-05-24T02:20:24.626Z,20.40
2023-05-24T02:20:35.556Z,20.41
2023-05-24T02:20:46.574Z,20.41
2023-05-24T02:20:57.544Z,20.41
2023-05-24T02:21:08.616Z,20.41
2023-05-24T02:21:20.551Z,20.42
2023-05-24T02:21:31.531Z,20.41
2023-05-24T02:21:42.539Z,20.40
2023-05-24T02:21:53.628Z,20.42
2023-05-24T02:22:05.584Z,20.40
2023-05-24T02:22:16.561Z,20.41
2023-05-24T02:22:27.556Z,20.42
2023-05-24T02:22:38.531Z,20.42
2023-05-24T02:22:49.608Z,20.40
2023-05-24T02:23:00.589Z,20.41
2023-05-24T02:23:11.585Z,20.40
2023-05-24T02:23:22.570Z,20.41
2023-05-24T02:23:33.545Z,20.41
2023-05-24T02:23:44.524Z,20.40
2023-05-24T02:23:55.617Z,20.40
2023-05-24T02:24:07.568Z,20.41
2023-05-24T02:24:18.569Z,20.41
2023-05-24T02:24:29.557Z,20.40